sensor_id;sensor_type;location;lat;lon;timestamp;P1;durP1;ratioP1;P2;durP2;ratioP2
3959;SDS011;1994;48.640;8.894;2022-12-05T00:00:57;10.90;;;5.13;;
3959;SDS011;1994;48.640;8.894;2022-12-05T00:03:24;9.07;;;4.93;;
3959;SDS011;1994;48.640;8.894;2022-12-05T00:05:50;7.77;;;5.27;;
3959;SDS011;1994;48.640;8.894;2022-12-05T00:08:16;7.53;;;4.83;;
3959;SDS011;1994;48.640;8.894;2022-12-05T00:10:42;8.57;;;4.90;;
3959;SDS011;1994;48.640;8.894;2022-12-05T00:13:08;11.40;;;5.60;;
3959;SDS011;1994;48.640;8.894;2022-12-05T00:15:35;10.10;;;5.40;;
3959;SDS011;1994;48.640;8.894;2022-12-05T00:18:03;12.50;;;6.07;;
3959;SDS011;1994;48.640;8.894;2022-12-05T00:20:29;15.70;;;5.90;;
3959;SDS011;1994;48.640;8.894;2022-12-05T00:22:54;12.60;;;6.63;;
3959;SDS011;1994;48.640;8.894;2022-12-05T00:25:20;11.03;;;6.50;;
3959;SDS011;1994;48.640;8.894;2022-12-05T00:27:46;13.43;;;6.37;;
3959;SDS011;1994;48.640;8.894;2022-12-05T00:30:12;19.10;;;6.53;;
3959;SDS011;1994;48.640;8.894;2022-12-05T00:32:37;10.20;;;6.17;;
3959;SDS011;1994;48.640;8.894;2022-12-05T00:35:03;17.00;;;5.80;;
3959;SDS011;1994;48.640;8.894;2022-12-05T00:37:36;12.97;;;7.70;;
3959;SDS011;1994;48.640;8.894;2022-12-05T00:40:02;15.13;;;8.10;;
3959;SDS011;1994;48.640;8.894;2022-12-05T00:42:28;11.10;;;6.40;;
3959;SDS011;1994;48.640;8.894;2022-12-05T00:44:54;13.10;;;6.40;;
3959;SDS011;1994;48.640;8.894;2022-12-05T00:47:19;7.80;;;5.30;;
3959;SDS011;1994;48.640;8.894;2022-12-05T00:49:45;15.67;;;6.07;;
3959;SDS011;1994;48.640;8.894;2022-12-05T00:52:11;12.30;;;6.33;;
3959;SDS011;1994;48.640;8.894;2022-12-05T00:54:37;11.10;;;6.23;;
3959;SDS011;1994;48.640;8.894;2022-12-05T00:57:03;15.40;;;5.60;;
3959;SDS011;1994;48.640;8.894;2022-12-05T00:59:28;13.23;;;6.47;;
3959;SDS011;1994;48.640;8.894;2022-12-05T01:01:54;10.60;;;6.60;;
3959;SDS011;1994;48.640;8.894;2022-12-05T01:04:22;13.50;;;5.80;;
3959;SDS011;1994;48.640;8.894;2022-12-05T01:06:50;14.67;;;6.60;;
3959;SDS011;1994;48.640;8.894;2022-12-05T01:09:20;10.47;;;5.13;;
3959;SDS011;1994;48.640;8.894;2022-12-05T01:11:51;15.77;;;7.20;;
3959;SDS011;1994;48.640;8.894;2022-12-05T01:14:18;10.13;;;6.30;;
3959;SDS011;1994;48.640;8.894;2022-12-05T01:16:47;16.03;;;5.63;;
3959;SDS011;1994;48.640;8.894;2022-12-05T01:19:36;16.40;;;6.27;;
3959;SDS011;1994;48.640;8.894;2022-12-05T01:22:01;13.47;;;7.53;;
3959;SDS011;1994;48.640;8.894;2022-12-05T01:24:27;17.57;;;6.43;;
3959;SDS011;1994;48.640;8.894;2022-12-05T01:26:54;12.60;;;6.43;;
3959;SDS011;1994;48.640;8.894;2022-12-05T01:29:24;14.90;;;7.30;;
3959;SDS011;1994;48.640;8.894;2022-12-05T01:31:50;15.47;;;6.40;;
3959;SDS011;1994;48.640;8.894;2022-12-05T01:34:17;10.33;;;6.23;;
3959;SDS011;1994;48.640;8.894;2022-12-05T01:36:43;16.13;;;6.60;;
3959;SDS011;1994;48.640;8.894;2022-12-05T01:39:12;13.50;;;6.37;;
3959;SDS011;1994;48.640;8.894;2022-12-05T01:41:41;15.63;;;6.70;;
3959;SDS011;1994;48.640;8.894;2022-12-05T01:46:38;9.73;;;5.33;;
3959;SDS011;1994;48.640;8.894;2022-12-05T01:49:22;12.83;;;6.17;;
3959;SDS011;1994;48.640;8.894;2022-12-05T01:52:01;14.60;;;7.90;;
3959;SDS011;1994;48.640;8.894;2022-12-05T01:54:45;17.80;;;5.93;;
3959;SDS011;1994;48.640;8.894;2022-12-05T01:57:14;12.90;;;6.50;;
3959;SDS011;1994;48.640;8.894;2022-12-05T01:59:43;11.80;;;7.07;;
3959;SDS011;1994;48.640;8.894;2022-12-05T02:02:12;11.53;;;6.60;;
3959;SDS011;1994;48.640;8.894;2022-12-05T02:04:57;12.40;;;7.07;;
3959;SDS011;1994;48.640;8.894;2022-12-05T02:07:31;14.53;;;8.10;;
3959;SDS011;1994;48.640;8.894;2022-12-05T02:10:00;17.17;;;8.07;;
3959;SDS011;1994;48.640;8.894;2022-12-05T02:15:17;12.50;;;7.53;;
3959;SDS011;1994;48.640;8.894;2022-12-05T02:27:00;18.60;;;7.37;;
3959;SDS011;1994;48.640;8.894;2022-12-05T02:30:20;11.80;;;6.80;;
3959;SDS011;1994;48.640;8.894;2022-12-05T02:35:57;9.03;;;7.17;;
3959;SDS011;1994;48.640;8.894;2022-12-05T02:38:52;18.13;;;8.50;;
3959;SDS011;1994;48.640;8.894;2022-12-05T02:41:46;12.37;;;6.63;;
3959;SDS011;1994;48.640;8.894;2022-12-05T02:44:39;15.70;;;7.87;;
3959;SDS011;1994;48.640;8.894;2022-12-05T02:47:39;18.10;;;8.03;;
3959;SDS011;1994;48.640;8.894;2022-12-05T02:50:12;12.90;;;6.87;;
3959;SDS011;1994;48.640;8.894;2022-12-05T02:52:43;18.40;;;8.33;;
3959;SDS011;1994;48.640;8.894;2022-12-05T02:55:16;14.93;;;6.87;;
3959;SDS011;1994;48.640;8.894;2022-12-05T02:57:49;14.27;;;6.83;;
3959;SDS011;1994;48.640;8.894;2022-12-05T03:00:20;16.00;;;7.00;;
3959;SDS011;1994;48.640;8.894;2022-12-05T03:02:46;15.97;;;7.57;;
3959;SDS011;1994;48.640;8.894;2022-12-05T03:07:56;15.80;;;7.47;;
3959;SDS011;1994;48.640;8.894;2022-12-05T03:10:26;17.03;;;8.23;;
3959;SDS011;1994;48.640;8.894;2022-12-05T03:12:57;21.00;;;7.17;;
3959;SDS011;1994;48.640;8.894;2022-12-05T03:15:30;17.03;;;7.47;;
3959;SDS011;1994;48.640;8.894;2022-12-05T03:18:07;14.30;;;7.13;;
3959;SDS011;1994;48.640;8.894;2022-12-05T03:23:55;17.63;;;7.30;;
3959;SDS011;1994;48.640;8.894;2022-12-05T03:26:43;12.80;;;6.73;;
3959;SDS011;1994;48.640;8.894;2022-12-05T03:29:46;17.63;;;7.47;;
3959;SDS011;1994;48.640;8.894;2022-12-05T03:35:22;10.63;;;6.70;;
3959;SDS011;1994;48.640;8.894;2022-12-05T03:37:56;14.40;;;7.30;;
3959;SDS011;1994;48.640;8.894;2022-12-05T03:43:52;10.83;;;6.37;;
3959;SDS011;1994;48.640;8.894;2022-12-05T03:46:28;15.87;;;7.83;;
3959;SDS011;1994;48.640;8.894;2022-12-05T03:52:02;13.87;;;7.73;;
3959;SDS011;1994;48.640;8.894;2022-12-05T03:54:43;14.63;;;6.80;;
3959;SDS011;1994;48.640;8.894;2022-12-05T03:57:43;12.60;;;6.87;;
3959;SDS011;1994;48.640;8.894;2022-12-05T04:00:18;14.83;;;6.43;;
3959;SDS011;1994;48.640;8.894;2022-12-05T04:06:03;13.00;;;6.37;;
3959;SDS011;1994;48.640;8.894;2022-12-05T04:08:42;9.20;;;6.07;;
3959;SDS011;1994;48.640;8.894;2022-12-05T04:11:16;12.40;;;6.00;;
3959;SDS011;1994;48.640;8.894;2022-12-05T04:14:06;12.60;;;8.13;;
3959;SDS011;1994;48.640;8.894;2022-12-05T04:16:42;14.63;;;7.70;;
3959;SDS011;1994;48.640;8.894;2022-12-05T04:19:28;16.43;;;7.67;;
3959;SDS011;1994;48.640;8.894;2022-12-05T04:22:31;8.40;;;5.53;;
3959;SDS011;1994;48.640;8.894;2022-12-05T04:24:58;15.27;;;7.00;;
3959;SDS011;1994;48.640;8.894;2022-12-05T04:39:16;12.07;;;5.27;;
3959;SDS011;1994;48.640;8.894;2022-12-05T04:41:53;12.30;;;7.13;;
3959;SDS011;1994;48.640;8.894;2022-12-05T04:44:26;10.10;;;5.70;;
3959;SDS011;1994;48.640;8.894;2022-12-05T04:46:59;13.80;;;5.30;;
3959;SDS011;1994;48.640;8.894;2022-12-05T04:49:29;10.27;;;7.17;;
3959;SDS011;1994;48.640;8.894;2022-12-05T04:51:58;10.37;;;5.67;;
3959;SDS011;1994;48.640;8.894;2022-12-05T04:54:35;10.67;;;4.87;;
3959;SDS011;1994;48.640;8.894;2022-12-05T05:00:30;7.77;;;5.50;;
3959;SDS011;1994;48.640;8.894;2022-12-05T05:03:13;7.40;;;5.23;;
3959;SDS011;1994;48.640;8.894;2022-12-05T05:06:04;8.00;;;7.00;;
3959;SDS011;1994;48.640;8.894;2022-12-05T05:08:31;10.33;;;6.13;;
3959;SDS011;1994;48.640;8.894;2022-12-05T05:13:41;11.90;;;7.57;;
3959;SDS011;1994;48.640;8.894;2022-12-05T05:16:07;8.53;;;5.30;;
3959;SDS011;1994;48.640;8.894;2022-12-05T05:18:38;9.77;;;7.00;;
3959;SDS011;1994;48.640;8.894;2022-12-05T05:21:04;12.07;;;6.80;;
3959;SDS011;1994;48.640;8.894;2022-12-05T05:23:51;11.67;;;7.10;;
3959;SDS011;1994;48.640;8.894;2022-12-05T05:26:20;9.57;;;6.17;;
3959;SDS011;1994;48.640;8.894;2022-12-05T05:28:47;11.60;;;5.70;;
3959;SDS011;1994;48.640;8.894;2022-12-05T05:31:15;13.20;;;6.13;;
3959;SDS011;1994;48.640;8.894;2022-12-05T05:33:52;9.43;;;5.00;;
3959;SDS011;1994;48.640;8.894;2022-12-05T05:36:22;9.10;;;4.70;;
3959;SDS011;1994;48.640;8.894;2022-12-05T05:38:51;9.93;;;6.07;;
3959;SDS011;1994;48.640;8.894;2022-12-05T05:41:22;8.97;;;5.80;;
3959;SDS011;1994;48.640;8.894;2022-12-05T05:43:53;10.30;;;6.30;;
3959;SDS011;1994;48.640;8.894;2022-12-05T05:46:21;11.30;;;5.93;;
3959;SDS011;1994;48.640;8.894;2022-12-05T05:48:50;8.10;;;5.60;;
3959;SDS011;1994;48.640;8.894;2022-12-05T05:51:17;6.90;;;5.13;;
3959;SDS011;1994;48.640;8.894;2022-12-05T05:53:44;9.13;;;5.60;;
3959;SDS011;1994;48.640;8.894;2022-12-05T05:56:12;14.40;;;6.90;;
3959;SDS011;1994;48.640;8.894;2022-12-05T05:58:40;11.60;;;6.90;;
3959;SDS011;1994;48.640;8.894;2022-12-05T06:01:12;8.90;;;7.13;;
3959;SDS011;1994;48.640;8.894;2022-12-05T06:03:41;9.07;;;5.77;;
3959;SDS011;1994;48.640;8.894;2022-12-05T06:06:09;5.53;;;4.80;;
3959;SDS011;1994;48.640;8.894;2022-12-05T06:08:38;9.00;;;6.00;;
3959;SDS011;1994;48.640;8.894;2022-12-05T06:13:46;12.60;;;5.37;;
3959;SDS011;1994;48.640;8.894;2022-12-05T06:16:13;11.30;;;5.70;;
3959;SDS011;1994;48.640;8.894;2022-12-05T06:18:41;14.00;;;6.00;;
3959;SDS011;1994;48.640;8.894;2022-12-05T06:21:07;12.80;;;7.23;;
3959;SDS011;1994;48.640;8.894;2022-12-05T06:23:35;9.87;;;6.17;;
3959;SDS011;1994;48.640;8.894;2022-12-05T06:26:04;7.43;;;5.40;;
3959;SDS011;1994;48.640;8.894;2022-12-05T06:28:38;9.30;;;5.30;;
3959;SDS011;1994;48.640;8.894;2022-12-05T06:31:09;10.50;;;5.57;;
3959;SDS011;1994;48.640;8.894;2022-12-05T06:33:38;7.87;;;5.83;;
3959;SDS011;1994;48.640;8.894;2022-12-05T06:36:08;14.83;;;6.37;;
3959;SDS011;1994;48.640;8.894;2022-12-05T06:38:39;9.00;;;6.47;;
3959;SDS011;1994;48.640;8.894;2022-12-05T06:41:06;10.50;;;7.60;;
3959;SDS011;1994;48.640;8.894;2022-12-05T06:43:34;8.10;;;6.50;;
3959;SDS011;1994;48.640;8.894;2022-12-05T06:46:03;10.23;;;6.00;;
3959;SDS011;1994;48.640;8.894;2022-12-05T06:48:34;7.63;;;5.13;;
3959;SDS011;1994;48.640;8.894;2022-12-05T06:51:00;8.70;;;6.47;;
3959;SDS011;1994;48.640;8.894;2022-12-05T06:53:26;7.70;;;5.27;;
3959;SDS011;1994;48.640;8.894;2022-12-05T06:55:56;12.13;;;6.97;;
3959;SDS011;1994;48.640;8.894;2022-12-05T06:58:27;9.23;;;6.40;;
3959;SDS011;1994;48.640;8.894;2022-12-05T07:00:53;11.10;;;5.90;;
3959;SDS011;1994;48.640;8.894;2022-12-05T07:03:41;7.23;;;5.80;;
3959;SDS011;1994;48.640;8.894;2022-12-05T07:06:11;11.40;;;6.83;;
3959;SDS011;1994;48.640;8.894;2022-12-05T07:08:37;9.33;;;6.60;;
3959;SDS011;1994;48.640;8.894;2022-12-05T07:11:03;9.47;;;6.47;;
3959;SDS011;1994;48.640;8.894;2022-12-05T07:13:29;10.43;;;5.50;;
3959;SDS011;1994;48.640;8.894;2022-12-05T07:15:54;9.87;;;6.47;;
3959;SDS011;1994;48.640;8.894;2022-12-05T07:18:23;7.30;;;4.97;;
3959;SDS011;1994;48.640;8.894;2022-12-05T07:20:56;11.67;;;5.40;;
3959;SDS011;1994;48.640;8.894;2022-12-05T07:23:27;11.67;;;6.03;;
3959;SDS011;1994;48.640;8.894;2022-12-05T07:25:53;14.50;;;6.20;;
3959;SDS011;1994;48.640;8.894;2022-12-05T07:28:19;8.67;;;5.93;;
3959;SDS011;1994;48.640;8.894;2022-12-05T07:30:47;10.03;;;5.87;;
3959;SDS011;1994;48.640;8.894;2022-12-05T07:33:13;6.90;;;5.80;;
3959;SDS011;1994;48.640;8.894;2022-12-05T07:35:39;5.83;;;5.23;;
3959;SDS011;1994;48.640;8.894;2022-12-05T07:38:05;8.47;;;5.97;;
3959;SDS011;1994;48.640;8.894;2022-12-05T07:40:31;8.30;;;5.17;;
3959;SDS011;1994;48.640;8.894;2022-12-05T07:42:56;10.70;;;6.37;;
3959;SDS011;1994;48.640;8.894;2022-12-05T07:45:22;8.93;;;6.63;;
3959;SDS011;1994;48.640;8.894;2022-12-05T07:47:48;9.73;;;5.80;;
3959;SDS011;1994;48.640;8.894;2022-12-05T07:50:14;11.10;;;6.10;;
3959;SDS011;1994;48.640;8.894;2022-12-05T07:52:40;10.90;;;5.87;;
3959;SDS011;1994;48.640;8.894;2022-12-05T07:55:06;9.63;;;5.70;;
3959;SDS011;1994;48.640;8.894;2022-12-05T07:57:32;9.93;;;5.60;;
3959;SDS011;1994;48.640;8.894;2022-12-05T07:59:58;11.13;;;6.07;;
3959;SDS011;1994;48.640;8.894;2022-12-05T08:02:24;8.73;;;4.60;;
3959;SDS011;1994;48.640;8.894;2022-12-05T08:04:50;8.80;;;7.27;;
3959;SDS011;1994;48.640;8.894;2022-12-05T08:07:15;11.10;;;6.67;;
3959;SDS011;1994;48.640;8.894;2022-12-05T08:09:41;12.60;;;7.63;;
3959;SDS011;1994;48.640;8.894;2022-12-05T08:12:07;8.07;;;5.70;;
3959;SDS011;1994;48.640;8.894;2022-12-05T08:14:33;8.27;;;5.90;;
3959;SDS011;1994;48.640;8.894;2022-12-05T08:16:58;9.07;;;5.70;;
3959;SDS011;1994;48.640;8.894;2022-12-05T08:19:24;7.20;;;4.80;;
3959;SDS011;1994;48.640;8.894;2022-12-05T08:21:52;10.43;;;6.10;;
3959;SDS011;1994;48.640;8.894;2022-12-05T08:24:18;9.53;;;5.40;;
3959;SDS011;1994;48.640;8.894;2022-12-05T08:26:44;8.53;;;5.50;;
3959;SDS011;1994;48.640;8.894;2022-12-05T08:29:11;7.90;;;4.83;;
3959;SDS011;1994;48.640;8.894;2022-12-05T08:31:40;8.47;;;5.80;;
3959;SDS011;1994;48.640;8.894;2022-12-05T08:34:11;8.27;;;6.23;;
3959;SDS011;1994;48.640;8.894;2022-12-05T08:36:38;8.60;;;5.90;;
3959;SDS011;1994;48.640;8.894;2022-12-05T08:39:05;7.10;;;4.87;;
3959;SDS011;1994;48.640;8.894;2022-12-05T08:41:32;7.90;;;4.60;;
3959;SDS011;1994;48.640;8.894;2022-12-05T08:43:59;6.17;;;4.00;;
3959;SDS011;1994;48.640;8.894;2022-12-05T08:46:29;13.00;;;5.77;;
3959;SDS011;1994;48.640;8.894;2022-12-05T08:49:01;9.60;;;5.73;;
3959;SDS011;1994;48.640;8.894;2022-12-05T08:51:29;8.77;;;5.87;;
3959;SDS011;1994;48.640;8.894;2022-12-05T08:53:55;6.40;;;5.30;;
3959;SDS011;1994;48.640;8.894;2022-12-05T08:56:21;10.50;;;5.90;;
3959;SDS011;1994;48.640;8.894;2022-12-05T08:58:48;10.90;;;6.83;;
3959;SDS011;1994;48.640;8.894;2022-12-05T09:01:15;9.10;;;5.80;;
3959;SDS011;1994;48.640;8.894;2022-12-05T09:03:44;8.30;;;5.70;;
3959;SDS011;1994;48.640;8.894;2022-12-05T09:06:11;9.57;;;6.20;;
3959;SDS011;1994;48.640;8.894;2022-12-05T09:08:42;8.70;;;5.53;;
3959;SDS011;1994;48.640;8.894;2022-12-05T09:11:16;12.03;;;7.20;;
3959;SDS011;1994;48.640;8.894;2022-12-05T09:13:48;11.33;;;5.50;;
3959;SDS011;1994;48.640;8.894;2022-12-05T09:16:20;7.40;;;5.47;;
3959;SDS011;1994;48.640;8.894;2022-12-05T09:18:48;11.93;;;5.67;;
3959;SDS011;1994;48.640;8.894;2022-12-05T09:21:22;9.27;;;6.43;;
3959;SDS011;1994;48.640;8.894;2022-12-05T09:23:51;10.90;;;6.00;;
3959;SDS011;1994;48.640;8.894;2022-12-05T09:26:19;8.30;;;5.17;;
3959;SDS011;1994;48.640;8.894;2022-12-05T09:28:49;8.93;;;6.03;;
3959;SDS011;1994;48.640;8.894;2022-12-05T09:31:17;7.90;;;6.30;;
3959;SDS011;1994;48.640;8.894;2022-12-05T09:33:46;11.53;;;5.43;;
3959;SDS011;1994;48.640;8.894;2022-12-05T09:36:24;8.43;;;5.63;;
3959;SDS011;1994;48.640;8.894;2022-12-05T09:38:53;10.07;;;6.37;;
3959;SDS011;1994;48.640;8.894;2022-12-05T09:44:42;9.10;;;5.87;;
3959;SDS011;1994;48.640;8.894;2022-12-05T09:48:04;8.70;;;6.53;;
3959;SDS011;1994;48.640;8.894;2022-12-05T09:53:24;9.10;;;6.77;;
3959;SDS011;1994;48.640;8.894;2022-12-05T09:56:05;8.93;;;7.10;;
3959;SDS011;1994;48.640;8.894;2022-12-05T09:58:42;7.80;;;5.37;;
3959;SDS011;1994;48.640;8.894;2022-12-05T10:09:51;11.30;;;5.30;;
3959;SDS011;1994;48.640;8.894;2022-12-05T10:13:18;8.30;;;5.60;;
3959;SDS011;1994;48.640;8.894;2022-12-05T10:16:13;6.23;;;5.07;;
3959;SDS011;1994;48.640;8.894;2022-12-05T10:18:53;10.33;;;6.67;;
3959;SDS011;1994;48.640;8.894;2022-12-05T10:21:52;6.70;;;4.97;;
3959;SDS011;1994;48.640;8.894;2022-12-05T10:24:35;7.27;;;4.90;;
3959;SDS011;1994;48.640;8.894;2022-12-05T10:27:18;7.83;;;5.57;;
3959;SDS011;1994;48.640;8.894;2022-12-05T10:30:28;6.80;;;5.30;;
3959;SDS011;1994;48.640;8.894;2022-12-05T10:32:57;9.30;;;4.80;;
3959;SDS011;1994;48.640;8.894;2022-12-05T10:38:25;5.47;;;4.47;;
3959;SDS011;1994;48.640;8.894;2022-12-05T10:40:52;6.23;;;4.67;;
3959;SDS011;1994;48.640;8.894;2022-12-05T10:43:26;6.90;;;5.77;;
3959;SDS011;1994;48.640;8.894;2022-12-05T10:45:55;5.67;;;4.67;;
3959;SDS011;1994;48.640;8.894;2022-12-05T10:48:22;5.00;;;4.50;;
3959;SDS011;1994;48.640;8.894;2022-12-05T10:50:50;5.53;;;4.33;;
3959;SDS011;1994;48.640;8.894;2022-12-05T10:53:40;6.80;;;4.33;;
3959;SDS011;1994;48.640;8.894;2022-12-05T10:59:22;7.13;;;4.57;;
3959;SDS011;1994;48.640;8.894;2022-12-05T11:01:52;7.93;;;4.37;;
3959;SDS011;1994;48.640;8.894;2022-12-05T11:04:42;4.47;;;3.77;;
3959;SDS011;1994;48.640;8.894;2022-12-05T11:07:20;6.33;;;4.27;;
3959;SDS011;1994;48.640;8.894;2022-12-05T11:09:58;5.20;;;4.03;;
3959;SDS011;1994;48.640;8.894;2022-12-05T11:15:19;3.80;;;3.50;;
3959;SDS011;1994;48.640;8.894;2022-12-05T11:17:50;3.63;;;3.27;;
3959;SDS011;1994;48.640;8.894;2022-12-05T11:22:48;4.23;;;3.40;;
3959;SDS011;1994;48.640;8.894;2022-12-05T11:33:31;3.50;;;3.20;;
3959;SDS011;1994;48.640;8.894;2022-12-05T11:36:04;3.50;;;3.20;;
3959;SDS011;1994;48.640;8.894;2022-12-05T11:38:58;4.20;;;3.80;;
3959;SDS011;1994;48.640;8.894;2022-12-05T11:53:39;3.60;;;2.97;;
3959;SDS011;1994;48.640;8.894;2022-12-05T12:08:22;3.77;;;3.47;;
3959;SDS011;1994;48.640;8.894;2022-12-05T12:16:42;3.33;;;3.03;;
3959;SDS011;1994;48.640;8.894;2022-12-05T12:35:02;2.90;;;2.70;;
3959;SDS011;1994;48.640;8.894;2022-12-05T12:41:11;2.97;;;2.73;;
3959;SDS011;1994;48.640;8.894;2022-12-05T12:52:17;2.60;;;2.40;;
3959;SDS011;1994;48.640;8.894;2022-12-05T13:03:16;3.63;;;1.90;;
3959;SDS011;1994;48.640;8.894;2022-12-05T13:05:53;2.60;;;2.30;;
3959;SDS011;1994;48.640;8.894;2022-12-05T13:08:34;2.87;;;2.47;;
3959;SDS011;1994;48.640;8.894;2022-12-05T13:11:07;5.03;;;4.53;;
3959;SDS011;1994;48.640;8.894;2022-12-05T13:13:39;4.20;;;3.00;;
3959;SDS011;1994;48.640;8.894;2022-12-05T13:16:12;5.67;;;3.13;;
3959;SDS011;1994;48.640;8.894;2022-12-05T13:18:58;7.67;;;5.53;;
3959;SDS011;1994;48.640;8.894;2022-12-05T13:21:26;2.90;;;2.70;;
3959;SDS011;1994;48.640;8.894;2022-12-05T13:23:54;4.97;;;3.30;;
3959;SDS011;1994;48.640;8.894;2022-12-05T13:26:27;3.93;;;3.03;;
3959;SDS011;1994;48.640;8.894;2022-12-05T13:28:57;5.50;;;4.40;;
3959;SDS011;1994;48.640;8.894;2022-12-05T13:31:36;9.33;;;3.90;;
3959;SDS011;1994;48.640;8.894;2022-12-05T13:37:00;5.00;;;3.80;;
3959;SDS011;1994;48.640;8.894;2022-12-05T13:39:55;4.40;;;2.80;;
3959;SDS011;1994;48.640;8.894;2022-12-05T13:42:41;2.60;;;2.40;;
3959;SDS011;1994;48.640;8.894;2022-12-05T13:45:08;2.30;;;1.87;;
3959;SDS011;1994;48.640;8.894;2022-12-05T13:52:58;2.57;;;2.27;;
3959;SDS011;1994;48.640;8.894;2022-12-05T13:56:01;1.50;;;1.40;;
3959;SDS011;1994;48.640;8.894;2022-12-05T14:03:59;2.10;;;2.00;;
3959;SDS011;1994;48.640;8.894;2022-12-05T14:17:23;2.23;;;2.10;;
3959;SDS011;1994;48.640;8.894;2022-12-05T14:31:24;5.37;;;3.30;;
3959;SDS011;1994;48.640;8.894;2022-12-05T14:36:52;2.77;;;2.30;;
3959;SDS011;1994;48.640;8.894;2022-12-05T14:39:55;4.00;;;3.03;;
3959;SDS011;1994;48.640;8.894;2022-12-05T14:44:58;4.23;;;3.27;;
3959;SDS011;1994;48.640;8.894;2022-12-05T14:47:29;3.10;;;2.57;;
3959;SDS011;1994;48.640;8.894;2022-12-05T14:56:05;3.40;;;2.40;;
3959;SDS011;1994;48.640;8.894;2022-12-05T15:01:31;2.17;;;2.00;;
3959;SDS011;1994;48.640;8.894;2022-12-05T15:07:08;2.80;;;2.20;;
3959;SDS011;1994;48.640;8.894;2022-12-05T15:24:10;8.50;;;5.40;;
3959;SDS011;1994;48.640;8.894;2022-12-05T15:31:47;5.00;;;3.60;;
3959;SDS011;1994;48.640;8.894;2022-12-05T15:34:28;7.90;;;5.10;;
3959;SDS011;1994;48.640;8.894;2022-12-05T15:37:14;10.30;;;6.50;;
3959;SDS011;1994;48.640;8.894;2022-12-05T15:42:28;21.87;;;9.27;;
3959;SDS011;1994;48.640;8.894;2022-12-05T15:47:40;9.50;;;5.67;;
3959;SDS011;1994;48.640;8.894;2022-12-05T15:50:36;10.43;;;5.97;;
3959;SDS011;1994;48.640;8.894;2022-12-05T15:53:15;10.67;;;7.17;;
3959;SDS011;1994;48.640;8.894;2022-12-05T15:58:49;9.70;;;6.90;;
3959;SDS011;1994;48.640;8.894;2022-12-05T16:02:14;13.67;;;7.13;;
3959;SDS011;1994;48.640;8.894;2022-12-05T16:04:53;10.10;;;7.07;;
3959;SDS011;1994;48.640;8.894;2022-12-05T16:07:22;8.23;;;7.40;;
3959;SDS011;1994;48.640;8.894;2022-12-05T16:09:54;10.43;;;6.20;;
3959;SDS011;1994;48.640;8.894;2022-12-05T16:12:24;8.83;;;5.47;;
3959;SDS011;1994;48.640;8.894;2022-12-05T16:15:07;4.10;;;3.80;;
3959;SDS011;1994;48.640;8.894;2022-12-05T16:17:55;4.03;;;3.63;;
3959;SDS011;1994;48.640;8.894;2022-12-05T16:23:05;9.80;;;6.10;;
3959;SDS011;1994;48.640;8.894;2022-12-05T16:28:40;9.03;;;6.50;;
3959;SDS011;1994;48.640;8.894;2022-12-05T16:31:12;5.60;;;4.97;;
3959;SDS011;1994;48.640;8.894;2022-12-05T16:33:41;4.90;;;4.37;;
3959;SDS011;1994;48.640;8.894;2022-12-05T16:36:10;4.23;;;3.77;;
3959;SDS011;1994;48.640;8.894;2022-12-05T16:38:37;3.77;;;3.47;;
3959;SDS011;1994;48.640;8.894;2022-12-05T16:41:08;4.00;;;3.60;;
3959;SDS011;1994;48.640;8.894;2022-12-05T16:48:42;4.37;;;3.70;;
3959;SDS011;1994;48.640;8.894;2022-12-05T16:53:45;2.67;;;2.47;;
3959;SDS011;1994;48.640;8.894;2022-12-05T16:58:48;8.80;;;5.50;;
3959;SDS011;1994;48.640;8.894;2022-12-05T17:01:18;20.03;;;9.40;;
3959;SDS011;1994;48.640;8.894;2022-12-05T17:03:47;10.37;;;6.93;;
3959;SDS011;1994;48.640;8.894;2022-12-05T17:06:14;7.57;;;5.50;;
3959;SDS011;1994;48.640;8.894;2022-12-05T17:08:42;4.70;;;3.70;;
3959;SDS011;1994;48.640;8.894;2022-12-05T17:11:14;7.07;;;5.50;;
3959;SDS011;1994;48.640;8.894;2022-12-05T17:13:45;6.10;;;5.50;;
3959;SDS011;1994;48.640;8.894;2022-12-05T17:16:13;6.57;;;5.50;;
3959;SDS011;1994;48.640;8.894;2022-12-05T17:18:43;7.73;;;5.40;;
3959;SDS011;1994;48.640;8.894;2022-12-05T17:21:16;5.97;;;5.10;;
3959;SDS011;1994;48.640;8.894;2022-12-05T17:23:47;15.57;;;6.90;;
3959;SDS011;1994;48.640;8.894;2022-12-05T17:26:13;8.10;;;7.30;;
3959;SDS011;1994;48.640;8.894;2022-12-05T17:28:41;10.20;;;8.63;;
3959;SDS011;1994;48.640;8.894;2022-12-05T17:31:14;12.03;;;10.67;;
3959;SDS011;1994;48.640;8.894;2022-12-05T17:34:02;5.80;;;5.23;;
3959;SDS011;1994;48.640;8.894;2022-12-05T17:36:28;4.63;;;4.33;;
3959;SDS011;1994;48.640;8.894;2022-12-05T17:38:56;5.57;;;4.57;;
3959;SDS011;1994;48.640;8.894;2022-12-05T17:41:22;6.40;;;5.67;;
3959;SDS011;1994;48.640;8.894;2022-12-05T17:43:48;13.90;;;5.87;;
3959;SDS011;1994;48.640;8.894;2022-12-05T17:46:19;4.67;;;4.27;;
3959;SDS011;1994;48.640;8.894;2022-12-05T17:48:47;8.53;;;6.00;;
3959;SDS011;1994;48.640;8.894;2022-12-05T17:51:14;7.57;;;4.70;;
3959;SDS011;1994;48.640;8.894;2022-12-05T17:53:41;7.00;;;5.00;;
3959;SDS011;1994;48.640;8.894;2022-12-05T17:56:08;4.57;;;4.13;;
3959;SDS011;1994;48.640;8.894;2022-12-05T17:58:35;5.00;;;3.53;;
3959;SDS011;1994;48.640;8.894;2022-12-05T18:01:01;5.90;;;4.23;;
3959;SDS011;1994;48.640;8.894;2022-12-05T18:03:27;4.47;;;4.03;;
3959;SDS011;1994;48.640;8.894;2022-12-05T18:05:54;5.70;;;4.63;;
3959;SDS011;1994;48.640;8.894;2022-12-05T18:08:20;6.30;;;4.87;;
3959;SDS011;1994;48.640;8.894;2022-12-05T18:10:47;7.77;;;5.07;;
3959;SDS011;1994;48.640;8.894;2022-12-05T18:13:14;12.20;;;4.90;;
3959;SDS011;1994;48.640;8.894;2022-12-05T18:15:44;5.70;;;4.00;;
3959;SDS011;1994;48.640;8.894;2022-12-05T18:18:13;6.90;;;4.80;;
3959;SDS011;1994;48.640;8.894;2022-12-05T18:20:41;3.73;;;3.10;;
3959;SDS011;1994;48.640;8.894;2022-12-05T18:23:08;5.00;;;4.50;;
3959;SDS011;1994;48.640;8.894;2022-12-05T18:25:34;6.90;;;4.40;;
3959;SDS011;1994;48.640;8.894;2022-12-05T18:28:00;12.10;;;5.70;;
3959;SDS011;1994;48.640;8.894;2022-12-05T18:30:26;6.00;;;5.07;;
3959;SDS011;1994;48.640;8.894;2022-12-05T18:32:52;5.43;;;4.80;;
3959;SDS011;1994;48.640;8.894;2022-12-05T18:35:18;5.30;;;4.20;;
3959;SDS011;1994;48.640;8.894;2022-12-05T18:38:03;6.70;;;4.40;;
3959;SDS011;1994;48.640;8.894;2022-12-05T18:40:39;4.70;;;4.10;;
3959;SDS011;1994;48.640;8.894;2022-12-05T18:43:04;7.87;;;5.33;;
3959;SDS011;1994;48.640;8.894;2022-12-05T18:45:30;8.83;;;5.50;;
3959;SDS011;1994;48.640;8.894;2022-12-05T18:47:56;5.60;;;4.73;;
3959;SDS011;1994;48.640;8.894;2022-12-05T18:50:22;9.30;;;4.50;;
3959;SDS011;1994;48.640;8.894;2022-12-05T18:52:54;11.50;;;4.50;;
3959;SDS011;1994;48.640;8.894;2022-12-05T18:55:20;7.87;;;5.10;;
3959;SDS011;1994;48.640;8.894;2022-12-05T18:57:46;5.70;;;4.43;;
3959;SDS011;1994;48.640;8.894;2022-12-05T19:00:12;7.73;;;4.60;;
3959;SDS011;1994;48.640;8.894;2022-12-05T19:02:38;6.27;;;4.40;;
3959;SDS011;1994;48.640;8.894;2022-12-05T19:05:04;10.63;;;7.60;;
3959;SDS011;1994;48.640;8.894;2022-12-05T19:07:33;10.47;;;8.43;;
3959;SDS011;1994;48.640;8.894;2022-12-05T19:09:58;13.73;;;7.07;;
3959;SDS011;1994;48.640;8.894;2022-12-05T19:12:24;6.83;;;5.40;;
3959;SDS011;1994;48.640;8.894;2022-12-05T19:14:50;11.80;;;7.40;;
3959;SDS011;1994;48.640;8.894;2022-12-05T19:17:18;7.50;;;5.57;;
3959;SDS011;1994;48.640;8.894;2022-12-05T19:19:45;6.20;;;3.93;;
3959;SDS011;1994;48.640;8.894;2022-12-05T19:22:11;3.27;;;3.07;;
3959;SDS011;1994;48.640;8.894;2022-12-05T19:24:43;4.20;;;3.83;;
3959;SDS011;1994;48.640;8.894;2022-12-05T19:27:08;5.27;;;3.70;;
3959;SDS011;1994;48.640;8.894;2022-12-05T19:29:34;3.80;;;2.87;;
3959;SDS011;1994;48.640;8.894;2022-12-05T19:32:00;5.40;;;4.03;;
3959;SDS011;1994;48.640;8.894;2022-12-05T19:34:26;4.17;;;3.77;;
3959;SDS011;1994;48.640;8.894;2022-12-05T19:36:51;4.27;;;3.90;;
3959;SDS011;1994;48.640;8.894;2022-12-05T19:39:18;5.47;;;4.33;;
3959;SDS011;1994;48.640;8.894;2022-12-05T19:41:47;5.90;;;4.20;;
3959;SDS011;1994;48.640;8.894;2022-12-05T19:44:13;6.53;;;5.07;;
3959;SDS011;1994;48.640;8.894;2022-12-05T19:46:39;4.93;;;4.17;;
3959;SDS011;1994;48.640;8.894;2022-12-05T19:49:06;6.77;;;5.83;;
3959;SDS011;1994;48.640;8.894;2022-12-05T19:51:35;7.73;;;5.63;;
3959;SDS011;1994;48.640;8.894;2022-12-05T19:54:02;7.43;;;6.10;;